Time;durP1;ratioP1;P1;durP2;ratioP2;P2;SDS_P1;SDS_P2;PMS_P1;PMS_P2;Temp;Humidity;BMP_temperature;BMP_pressure;BME280_temperature;BME280_humidity;BME280_pressure;Samples;Min_cycle;Max_cycle;Signal;HPM_P1;HPM_P2
2023/01/30 00:00:26;;;;;;;43.67;16.08;;;5.00;99.90;;;;;;5130641;28;20046;-73
2023/01/30 00:02:51;;;;;;;38.20;15.85;;;5.00;99.90;;;;;;5112592;28;20046;-73
2023/01/30 00:05:17;;;;;;;40.35;15.88;;;5.00;99.90;;;;;;5113208;27;20130;-73
2023/01/30 00:07:43;;;;;;;36.10;14.70;;;5.10;99.90;;;;;;5133542;27;20051;-73
2023/01/30 00:10:09;;;;;;;35.90;14.35;;;5.00;99.90;;;;;;5115423;27;20100;-73
2023/01/30 00:12:35;;;;;;;41.17;16.27;;;5.00;99.90;;;;;;5134912;27;20049;-73
2023/01/30 00:15:01;;;;;;;38.75;14.70;;;5.00;99.90;;;;;;5135140;27;20051;-73
2023/01/30 00:17:26;;;;;;;38.03;15.00;;;5.10;99.90;;;;;;5135207;27;20303;-73
2023/01/30 00:19:52;;;;;;;42.22;15.82;;;5.10;99.90;;;;;;5147191;27;20043;-73
2023/01/30 00:22:17;;;;;;;37.80;14.00;;;5.10;99.90;;;;;;5126000;27;20125;-72
2023/01/30 00:24:43;;;;;;;43.17;14.85;;;5.10;99.90;;;;;;5154640;27;20046;-73
2023/01/30 00:27:09;;;;;;;46.60;15.20;;;5.20;99.90;;;;;;5136366;27;20042;-74
2023/01/30 00:29:34;;;;;;;41.55;16.08;;;5.10;99.90;;;;;;5155680;27;20046;-73
2023/01/30 00:32:00;;;;;;;36.78;15.85;;;5.10;99.90;;;;;;5155401;27;20043;-73
2023/01/30 00:34:26;;;;;;;40.25;15.75;;;5.10;99.90;;;;;;5124656;27;20806;-73
2023/01/30 00:36:51;;;;;;;37.35;14.40;;;5.20;99.90;;;;;;5134491;27;20065;-74
2023/01/30 00:39:17;;;;;;;38.42;13.50;;;5.30;99.90;;;;;;5134358;27;20043;-73
2023/01/30 00:47:12;;;;;;;39.95;14.85;;;5.30;99.90;;;;;;5133470;27;20053;-73
2023/01/30 00:49:37;;;;;;;36.60;14.32;;;5.40;99.90;;;;;;5134044;27;20042;-73
2023/01/30 00:52:04;;;;;;;37.80;13.88;;;5.40;99.90;;;;;;5133153;27;20043;-73
2023/01/30 00:54:30;;;;;;;35.70;12.32;;;5.50;99.90;;;;;;5143814;27;20050;-73
2023/01/30 00:56:56;;;;;;;31.75;12.30;;;5.50;99.90;;;;;;5150323;27;20043;-74
2023/01/30 00:59:21;;;;;;;41.60;13.70;;;5.50;99.90;;;;;;5141087;27;20043;-73
2023/01/30 01:01:47;;;;;;;33.15;13.05;;;5.50;99.90;;;;;;5133969;27;20047;-73
2023/01/30 01:04:13;;;;;;;32.35;12.70;;;5.70;99.90;;;;;;5142432;27;20039;-73
2023/01/30 01:06:39;;;;;;;36.42;13.95;;;5.60;99.90;;;;;;5149151;27;20043;-73
2023/01/30 01:09:05;;;;;;;34.75;13.10;;;5.70;99.90;;;;;;5151071;27;20066;-73
2023/01/30 01:11:31;;;;;;;33.45;12.43;;;5.70;99.90;;;;;;5154105;27;20043;-72
2023/01/30 01:14:01;;;;;;;36.60;13.07;;;5.80;99.90;;;;;;5154483;27;20047;-73
2023/01/30 01:16:28;;;;;;;27.10;11.15;;;5.80;99.90;;;;;;5109131;27;20043;-73
2023/01/30 01:18:53;;;;;;;38.15;12.77;;;5.80;99.90;;;;;;5133308;27;20100;-73
2023/01/30 01:21:20;;;;;;;26.13;11.52;;;5.90;99.90;;;;;;5133054;27;20430;-73
2023/01/30 01:23:51;;;;;;;34.47;11.77;;;5.90;99.90;;;;;;5133771;27;20043;-73
2023/01/30 01:26:17;;;;;;;31.13;12.23;;;5.90;99.90;;;;;;5153654;27;20046;-73
2023/01/30 01:28:43;;;;;;;30.20;12.57;;;5.90;99.90;;;;;;5154297;27;20042;-73
2023/01/30 01:31:14;;;;;;;37.55;12.68;;;5.90;99.90;;;;;;5133576;27;20123;-72
2023/01/30 01:33:39;;;;;;;29.50;12.43;;;5.90;99.90;;;;;;5135732;27;20105;-72
2023/01/30 01:36:06;;;;;;;39.40;12.65;;;5.90;99.90;;;;;;5151331;27;20655;-73
2023/01/30 01:38:33;;;;;;;37.85;13.63;;;5.90;99.90;;;;;;5132985;27;20408;-72
2023/01/30 01:41:01;;;;;;;31.17;11.52;;;5.90;99.90;;;;;;5153664;27;20043;-72
2023/01/30 01:43:33;;;;;;;32.15;12.27;;;5.90;99.90;;;;;;5153396;27;20042;-71
2023/01/30 01:46:19;;;;;;;29.50;11.63;;;5.90;99.90;;;;;;5152018;27;20043;-71
2023/01/30 01:48:52;;;;;;;30.42;11.68;;;5.90;99.90;;;;;;5152680;27;20385;-71
2023/01/30 01:51:33;;;;;;;33.17;11.82;;;5.90;99.90;;;;;;5147501;27;20086;-71
2023/01/30 01:54:15;;;;;;;29.85;11.20;;;6.00;99.90;;;;;;5129156;27;20047;-72
2023/01/30 01:56:44;;;;;;;27.75;10.38;;;6.00;99.90;;;;;;5132317;27;20046;-72
2023/01/30 01:59:18;;;;;;;34.60;11.60;;;6.00;99.90;;;;;;5132796;27;20503;-72
2023/01/30 02:01:44;;;;;;;34.67;11.13;;;6.00;99.90;;;;;;5132624;27;20050;-72
2023/01/30 02:04:11;;;;;;;32.90;9.18;;;5.90;99.90;;;;;;5132271;27;20047;-71
2023/01/30 02:06:40;;;;;;;25.42;10.93;;;6.00;99.90;;;;;;5134242;27;20047;-71
2023/01/30 02:09:08;;;;;;;31.23;10.65;;;6.00;99.90;;;;;;5133363;27;20063;-72
2023/01/30 02:11:51;;;;;;;21.58;8.38;;;6.00;99.90;;;;;;5131592;27;20047;-71
2023/01/30 02:14:18;;;;;;;23.63;8.55;;;6.00;99.90;;;;;;5131703;27;20047;-75
2023/01/30 02:16:46;;;;;;;23.50;8.05;;;6.10;99.90;;;;;;5132410;27;20039;-71
2023/01/30 02:19:54;;;;;;;22.65;8.38;;;6.00;99.90;;;;;;5132124;27;20086;-72
2023/01/30 02:22:40;;;;;;;23.63;7.50;;;6.00;99.90;;;;;;5066865;28;20119;-72
2023/01/30 02:25:25;;;;;;;21.05;6.88;;;6.00;99.90;;;;;;5068731;28;20044;-72
2023/01/30 02:27:53;;;;;;;20.25;6.95;;;6.10;99.90;;;;;;5115941;27;20051;-73
2023/01/30 02:30:37;;;;;;;19.08;6.32;;;6.10;99.90;;;;;;5146133;27;20043;-72
2023/01/30 02:33:29;;;;;;;18.27;7.30;;;6.10;99.90;;;;;;5152388;27;20043;-72
2023/01/30 02:36:00;;;;;;;13.73;5.25;;;6.10;99.90;;;;;;5112848;27;20051;-72
2023/01/30 02:38:37;;;;;;;18.20;6.22;;;6.20;99.90;;;;;;5138673;27;20046;-72
2023/01/30 02:41:25;;;;;;;14.43;6.05;;;6.20;99.90;;;;;;5153000;27;20046;-72
2023/01/30 02:43:59;;;;;;;13.10;5.88;;;6.20;99.90;;;;;;5148159;27;20053;-71
2023/01/30 02:46:55;;;;;;;11.55;4.97;;;6.20;99.90;;;;;;5152405;27;20053;-72
2023/01/30 02:49:26;;;;;;;15.60;5.10;;;6.20;99.90;;;;;;5152011;27;20061;-72
2023/01/30 02:51:55;;;;;;;11.45;4.50;;;6.20;99.90;;;;;;5152343;27;20089;-72
2023/01/30 02:54:20;;;;;;;13.32;4.65;;;6.20;99.90;;;;;;5149069;27;20043;-74
2023/01/30 02:56:56;;;;;;;15.10;4.80;;;6.20;99.90;;;;;;5135478;27;20051;-71
2023/01/30 02:59:44;;;;;;;9.13;4.25;;;6.30;99.90;;;;;;5131446;27;20066;-72
2023/01/30 03:02:31;;;;;;;11.82;3.92;;;6.20;99.90;;;;;;5131608;27;20054;-72
2023/01/30 03:05:06;;;;;;;11.07;3.53;;;6.20;99.90;;;;;;5139389;27;20095;-72
2023/01/30 03:07:57;;;;;;;8.20;3.38;;;6.20;99.90;;;;;;5149875;27;20086;-72
2023/01/30 03:10:45;;;;;;;10.30;3.20;;;6.20;99.90;;;;;;5151281;27;20122;-72
2023/01/30 03:13:20;;;;;;;9.35;3.58;;;6.30;99.90;;;;;;5152002;27;20412;-72
2023/01/30 03:15:54;;;;;;;5.65;2.45;;;6.30;99.90;;;;;;5152365;27;20051;-72
2023/01/30 03:18:20;;;;;;;7.72;3.30;;;6.30;99.90;;;;;;5151860;27;20050;-75
2023/01/30 03:20:46;;;;;;;19.52;3.38;;;6.30;99.90;;;;;;5151806;27;20058;-72
2023/01/30 03:23:13;;;;;;;11.70;3.40;;;6.20;99.90;;;;;;5146887;27;20047;-72
2023/01/30 03:25:41;;;;;;;9.23;3.00;;;6.30;99.90;;;;;;5133275;27;20047;-74
2023/01/30 03:28:08;;;;;;;13.75;3.25;;;6.30;99.90;;;;;;5131630;28;20130;-72
2023/01/30 03:30:34;;;;;;;11.38;3.45;;;6.30;99.90;;;;;;5131144;28;20039;-72
2023/01/30 03:32:59;;;;;;;9.05;2.90;;;6.30;99.90;;;;;;5131141;28;20145;-73
2023/01/30 03:35:25;;;;;;;15.88;3.72;;;6.30;99.90;;;;;;5130926;28;20132;-72
2023/01/30 03:37:52;;;;;;;8.00;3.00;;;6.40;99.90;;;;;;5129624;28;20043;-72
2023/01/30 03:40:18;;;;;;;9.52;3.35;;;6.40;99.90;;;;;;5137363;27;20126;-72
2023/01/30 03:42:43;;;;;;;18.90;4.18;;;6.40;99.90;;;;;;5155783;27;20300;-72
2023/01/30 03:45:10;;;;;;;12.88;4.13;;;6.40;99.90;;;;;;5156215;27;20047;-73
2023/01/30 03:47:35;;;;;;;14.80;3.63;;;6.40;99.90;;;;;;5155200;27;20122;-72
2023/01/30 03:50:02;;;;;;;13.80;3.38;;;6.40;99.90;;;;;;5154703;27;20484;-72
2023/01/30 03:52:27;;;;;;;9.10;2.95;;;6.40;99.90;;;;;;5153835;27;20066;-72
2023/01/30 03:54:53;;;;;;;14.25;3.63;;;6.40;99.90;;;;;;5142077;27;20535;-73
2023/01/30 03:57:18;;;;;;;10.05;2.90;;;6.40;99.90;;;;;;5137623;27;20047;-73
2023/01/30 03:59:44;;;;;;;8.82;2.80;;;6.40;99.90;;;;;;5154911;27;20039;-72
2023/01/30 04:02:10;;;;;;;11.32;2.92;;;6.40;99.90;;;;;;5137146;27;20078;-72
2023/01/30 04:04:35;;;;;;;10.35;3.33;;;6.40;99.90;;;;;;5150889;27;20107;-72
2023/01/30 04:07:01;;;;;;;10.82;3.17;;;6.40;99.90;;;;;;5154656;27;20046;-72
2023/01/30 04:09:27;;;;;;;16.30;3.78;;;6.40;99.90;;;;;;5143308;27;20058;-72
2023/01/30 04:11:53;;;;;;;9.40;3.63;;;6.40;99.90;;;;;;5138116;27;20041;-72
2023/01/30 04:14:18;;;;;;;8.88;2.55;;;6.40;99.90;;;;;;5156016;27;20126;-72
2023/01/30 04:16:44;;;;;;;11.55;3.33;;;6.40;99.90;;;;;;5155252;27;20692;-72
2023/01/30 04:19:10;;;;;;;14.43;3.25;;;6.40;99.90;;;;;;5155126;27;20043;-72
2023/01/30 04:21:36;;;;;;;13.02;3.20;;;6.40;99.90;;;;;;5154617;27;20187;-73
2023/01/30 04:24:02;;;;;;;13.80;3.30;;;6.40;99.90;;;;;;5134635;27;20472;-72
2023/01/30 04:26:28;;;;;;;9.43;2.90;;;6.40;99.90;;;;;;5137792;27;20137;-72
2023/01/30 04:28:53;;;;;;;11.15;3.40;;;6.40;99.90;;;;;;5134706;27;20058;-72
2023/01/30 04:31:19;;;;;;;10.52;3.03;;;6.50;99.90;;;;;;5134795;27;20134;-72
2023/01/30 04:33:45;;;;;;;12.00;2.85;;;6.50;99.90;;;;;;5098563;27;20058;-73
2023/01/30 04:36:11;;;;;;;11.68;3.70;;;6.50;99.90;;;;;;5134618;27;20052;-69
2023/01/30 04:38:38;;;;;;;18.95;3.05;;;6.50;99.90;;;;;;5132363;27;20130;-70
2023/01/30 04:41:04;;;;;;;17.63;3.20;;;6.50;99.90;;;;;;5134451;27;20075;-70
2023/01/30 04:43:30;;;;;;;;;;;6.50;99.90;;;;;;5134301;27;20129;-70
2023/01/30 04:45:56;;;;;;;14.85;3.58;;;6.50;99.90;;;;;;5120025;27;20052;-70
2023/01/30 04:48:23;;;;;;;;;;;6.50;99.90;;;;;;5133410;27;20054;-71
2023/01/30 04:50:51;;;;;;;20.23;4.45;;;6.50;99.90;;;;;;5133093;27;19919;-69
2023/01/30 04:53:17;;;;;;;13.35;3.03;;;6.50;99.90;;;;;;5132384;27;20449;-70
2023/01/30 04:55:43;;;;;;;9.55;2.45;;;6.50;99.90;;;;;;5133490;27;20129;-70
2023/01/30 04:58:09;;;;;;;12.73;2.92;;;6.50;99.90;;;;;;5134158;27;20122;-70
2023/01/30 05:00:35;;;;;;;24.67;2.60;;;6.40;99.90;;;;;;5133253;27;20096;-71
2023/01/30 05:03:00;;;;;;;14.45;3.40;;;6.40;99.90;;;;;;5133910;27;20130;-71
2023/01/30 05:05:26;;;;;;;13.90;3.50;;;6.30;99.90;;;;;;5152007;27;20606;-71
2023/01/30 05:07:53;;;;;;;12.65;2.65;;;6.20;99.90;;;;;;5150555;27;20069;-70
2023/01/30 05:10:19;;;;;;;13.50;2.95;;;6.10;99.90;;;;;;5118024;27;20044;-70
2023/01/30 05:12:45;;;;;;;8.85;2.83;;;6.10;99.90;;;;;;5133223;27;20043;-70
2023/01/30 05:15:11;;;;;;;25.35;2.90;;;6.10;99.90;;;;;;5133884;27;20049;-71
2023/01/30 05:17:38;;;;;;;16.10;3.28;;;6.10;99.90;;;;;;5132781;27;20047;-70
2023/01/30 05:20:05;;;;;;;7.28;2.35;;;6.10;99.90;;;;;;5133662;27;20039;-70
2023/01/30 05:22:31;;;;;;;12.48;2.35;;;6.20;99.90;;;;;;5137209;27;20049;-71
2023/01/30 05:24:57;;;;;;;14.07;2.95;;;6.20;99.90;;;;;;5154277;27;20043;-70
2023/01/30 05:27:23;;;;;;;10.50;2.47;;;6.20;99.90;;;;;;5152315;27;20049;-70
2023/01/30 05:29:48;;;;;;;17.83;3.08;;;6.20;99.90;;;;;;5135527;27;20043;-70
2023/01/30 05:32:16;;;;;;;15.13;2.58;;;6.20;99.90;;;;;;5133148;27;20038;-70
2023/01/30 05:34:41;;;;;;;10.98;2.33;;;6.20;99.90;;;;;;5132716;27;20102;-71
2023/01/30 05:37:07;;;;;;;10.70;2.15;;;6.20;99.90;;;;;;5132325;27;20500;-70
2023/01/30 05:39:33;;;;;;;12.75;3.05;;;6.10;99.90;;;;;;5131708;27;20473;-70
2023/01/30 05:41:59;;;;;;;8.80;2.60;;;6.10;99.90;;;;;;5133332;27;20130;-70
2023/01/30 05:44:24;;;;;;;11.00;2.30;;;6.00;99.90;;;;;;5133213;27;20130;-70
2023/01/30 05:46:50;;;;;;;11.27;2.80;;;6.00;99.90;;;;;;5136430;27;20047;-70
2023/01/30 05:49:16;;;;;;;13.63;2.95;;;6.00;99.90;;;;;;5148674;27;20471;-70
2023/01/30 05:51:41;;;;;;;11.27;1.90;;;5.90;99.90;;;;;;5153337;27;20042;-70
2023/01/30 05:54:07;;;;;;;12.68;2.28;;;5.80;99.90;;;;;;5143974;27;20055;-70
2023/01/30 05:56:33;;;;;;;15.35;4.13;;;5.80;99.90;;;;;;5132570;27;20047;-70
2023/01/30 05:59:00;;;;;;;;;;;5.80;99.90;;;;;;5132624;27;20078;-71
2023/01/30 06:01:27;;;;;;;10.93;2.73;;;5.70;99.90;;;;;;5132273;27;20074;-70
2023/01/30 06:03:53;;;;;;;17.10;3.17;;;5.70;99.90;;;;;;5150800;27;20272;-70
2023/01/30 06:06:19;;;;;;;13.38;2.42;;;5.60;99.90;;;;;;5152591;27;20501;-70
2023/01/30 06:08:45;;;;;;;13.30;2.58;;;5.60;99.90;;;;;;5144606;27;20048;-70
2023/01/30 06:11:14;;;;;;;17.58;2.75;;;5.60;99.90;;;;;;5132343;27;20130;-70
2023/01/30 06:13:40;;;;;;;13.02;2.50;;;5.50;99.90;;;;;;5149115;27;20047;-70
2023/01/30 06:16:08;;;;;;;19.17;2.47;;;5.50;99.90;;;;;;5153507;27;20043;-69
2023/01/30 06:18:34;;;;;;;17.45;3.15;;;5.40;99.90;;;;;;5152484;27;20146;-73
2023/01/30 06:21:00;;;;;;;19.63;2.88;;;5.40;99.90;;;;;;5153240;27;20054;-70
2023/01/30 06:23:26;;;;;;;17.88;3.40;;;5.40;99.90;;;;;;5151191;27;20484;-70
2023/01/30 06:25:52;;;;;;;12.40;2.70;;;5.30;99.90;;;;;;5152155;27;20082;-69
2023/01/30 06:28:21;;;;;;;15.02;2.72;;;5.20;99.90;;;;;;5148630;27;20047;-70
2023/01/30 06:30:46;;;;;;;26.67;3.25;;;5.30;99.90;;;;;;5131632;27;20076;-70
2023/01/30 06:33:13;;;;;;;19.77;2.60;;;5.30;99.90;;;;;;5140944;27;20495;-70
2023/01/30 06:35:39;;;;;;;;;;;5.20;99.90;;;;;;5136565;27;20047;-70
2023/01/30 06:38:05;;;;;;;14.82;2.72;;;5.10;99.90;;;;;;5130504;27;20023;-70
2023/01/30 06:40:31;;;;;;;17.77;3.53;;;5.00;99.90;;;;;;5131847;27;20043;-70
2023/01/30 06:42:57;;;;;;;;;;;5.10;99.90;;;;;;5152078;27;20103;-70
2023/01/30 06:45:22;;;;;;;15.63;2.40;;;5.30;99.90;;;;;;5147842;27;19997;-70
2023/01/30 06:47:53;;;;;;;15.43;2.20;;;5.20;99.90;;;;;;5151239;27;20381;-72
2023/01/30 06:50:21;;;;;;;14.88;2.88;;;5.20;99.90;;;;;;5152652;27;20046;-72
2023/01/30 06:52:49;;;;;;;17.30;4.30;;;5.30;99.90;;;;;;5148746;27;20131;-72
2023/01/30 06:55:17;;;;;;;15.35;2.75;;;5.40;99.90;;;;;;5152716;27;20492;-72
2023/01/30 06:57:43;;;;;;;13.02;2.90;;;5.40;99.90;;;;;;5151157;27;20047;-73
2023/01/30 07:00:19;;;;;;;20.85;3.63;;;5.50;99.90;;;;;;5131855;27;20051;-72
2023/01/30 07:02:45;;;;;;;10.85;2.05;;;5.50;99.90;;;;;;5137858;27;20147;-73
2023/01/30 07:05:11;;;;;;;18.02;2.85;;;5.60;99.90;;;;;;5147338;27;20042;-72
2023/01/30 07:07:38;;;;;;;19.48;2.30;;;5.60;99.90;;;;;;5150078;27;20053;-74
2023/01/30 07:10:05;;;;;;;20.25;3.05;;;5.60;99.90;;;;;;5150263;27;20054;-73
2023/01/30 07:12:31;;;;;;;13.30;2.40;;;5.60;99.90;;;;;;5152493;27;20066;-72
2023/01/30 07:14:57;;;;;;;17.58;3.28;;;5.60;99.90;;;;;;5133313;27;20527;-73
2023/01/30 07:17:23;;;;;;;15.65;3.90;;;5.50;99.90;;;;;;5152190;27;20046;-73
2023/01/30 07:19:49;;;;;;;16.15;3.83;;;5.50;99.90;;;;;;5151888;27;20034;-73
2023/01/30 07:22:15;;;;;;;16.13;2.80;;;5.40;99.90;;;;;;5133720;27;20230;-73
2023/01/30 07:24:44;;;;;;;6.40;2.20;;;5.50;99.90;;;;;;5146381;27;20042;-73
2023/01/30 07:27:11;;;;;;;14.68;2.22;;;5.50;99.90;;;;;;5152417;27;20046;-73
2023/01/30 07:29:38;;;;;;;27.13;3.35;;;5.60;99.90;;;;;;5150257;27;20080;-76
2023/01/30 07:32:05;;;;;;;14.07;2.70;;;5.60;99.90;;;;;;5150295;27;20057;-72
2023/01/30 07:34:30;;;;;;;12.48;2.22;;;5.60;99.90;;;;;;5147822;27;20464;-74
2023/01/30 07:36:56;;;;;;;14.00;3.25;;;5.60;99.90;;;;;;5143911;27;20074;-76
2023/01/30 07:39:22;;;;;;;20.73;2.33;;;5.60;99.90;;;;;;5130470;28;20396;-73
2023/01/30 07:41:47;;;;;;;13.77;3.15;;;5.70;99.90;;;;;;5130999;28;20087;-72
2023/01/30 07:44:13;;;;;;;12.88;2.95;;;5.70;99.90;;;;;;5131324;27;20430;-72
2023/01/30 07:46:39;;;;;;;12.00;2.25;;;5.80;99.90;;;;;;5131152;28;20047;-75
2023/01/30 07:49:06;;;;;;;12.65;2.40;;;5.60;99.90;;;;;;5130877;28;20130;-72
2023/01/30 07:51:32;;;;;;;12.80;2.30;;;5.80;99.90;;;;;;5134724;27;20046;-73
2023/01/30 07:53:58;;;;;;;;;;;5.60;99.90;;;;;;5129311;28;20353;-73
2023/01/30 07:56:23;;;;;;;9.13;3.10;;;5.60;99.90;;;;;;5113361;28;20456;-72
2023/01/30 07:58:49;;;;;;;13.63;3.70;;;5.50;99.90;;;;;;5130878;28;20096;-72
2023/01/30 08:01:16;;;;;;;9.43;2.65;;;5.50;99.90;;;;;;5131186;28;20047;-73
2023/01/30 08:03:43;;;;;;;11.48;2.72;;;5.60;99.90;;;;;;5130079;28;20563;-76
2023/01/30 08:06:09;;;;;;;15.00;2.17;;;5.60;99.90;;;;;;5137393;27;20042;-73
2023/01/30 08:08:34;;;;;;;14.52;2.17;;;5.60;99.90;;;;;;5150289;27;20047;-73
2023/01/30 08:11:00;;;;;;;13.30;3.28;;;5.70;99.90;;;;;;5151548;27;20043;-73
2023/01/30 08:13:26;;;;;;;14.95;2.42;;;5.90;99.90;;;;;;5151793;27;20043;-73
2023/01/30 08:15:52;;;;;;;18.88;2.58;;;5.80;99.90;;;;;;5148924;27;20042;-72
2023/01/30 08:18:17;;;;;;;16.77;3.00;;;5.80;99.90;;;;;;5151014;27;20435;-73
2023/01/30 08:20:43;;;;;;;24.45;3.05;;;5.80;99.90;;;;;;5151482;27;20386;-73
2023/01/30 08:23:09;;;;;;;7.72;2.03;;;5.80;99.90;;;;;;5121171;28;20059;-72
2023/01/30 08:25:36;;;;;;;18.00;3.55;;;5.80;99.90;;;;;;5131058;27;20584;-72
2023/01/30 08:28:03;;;;;;;23.83;3.20;;;5.80;99.90;;;;;;5138492;27;20088;-73
2023/01/30 08:30:29;;;;;;;18.75;3.05;;;5.90;99.90;;;;;;5134779;27;20054;-73
2023/01/30 08:32:56;;;;;;;14.85;3.30;;;5.80;99.90;;;;;;5132860;27;20396;-74
2023/01/30 08:35:22;;;;;;;16.05;2.38;;;6.00;99.90;;;;;;5096645;27;20051;-73
2023/01/30 08:37:48;;;;;;;11.73;2.50;;;6.00;99.90;;;;;;5136377;27;20077;-74
2023/01/30 08:40:14;;;;;;;9.25;3.22;;;6.00;99.90;;;;;;5160288;27;20195;-73
2023/01/30 08:42:42;;;;;;;;;;;6.00;99.90;;;;;;5173100;27;20053;-74
2023/01/30 08:45:08;;;;;;;18.70;2.70;;;6.00;99.90;;;;;;5173415;27;19945;-73
2023/01/30 08:47:34;;;;;;;22.05;3.25;;;6.00;99.90;;;;;;5173226;27;20467;-73
2023/01/30 08:50:00;;;;;;;19.35;2.83;;;6.00;99.90;;;;;;5174143;27;20042;-73
2023/01/30 08:52:26;;;;;;;18.02;3.60;;;6.10;99.90;;;;;;5166833;27;20038;-73
2023/01/30 08:54:51;;;;;;;21.20;2.97;;;6.10;99.90;;;;;;5161464;27;20389;-73
2023/01/30 08:57:18;;;;;;;16.20;2.65;;;6.10;99.90;;;;;;5158870;27;20066;-73
2023/01/30 08:59:43;;;;;;;;;;;6.10;99.90;;;;;;5173826;27;20103;-75
2023/01/30 09:02:10;;;;;;;23.70;3.15;;;6.10;99.90;;;;;;5172184;27;19919;-74
2023/01/30 09:04:36;;;;;;;17.42;3.45;;;6.20;99.90;;;;;;5163356;27;20074;-73
2023/01/30 09:07:02;;;;;;;13.40;2.20;;;6.10;99.90;;;;;;5137167;27;20074;-74
2023/01/30 09:09:28;;;;;;;24.52;3.70;;;6.20;99.90;;;;;;5152985;27;20079;-72
2023/01/30 09:11:54;;;;;;;18.13;3.10;;;6.20;99.90;;;;;;5153936;27;20050;-73
2023/01/30 09:14:20;;;;;;;11.68;2.20;;;6.10;99.90;;;;;;5141801;27;20043;-73
2023/01/30 09:16:47;;;;;;;15.32;2.47;;;6.20;99.90;;;;;;5150037;27;20039;-77
2023/01/30 09:19:13;;;;;;;12.05;2.35;;;6.20;99.90;;;;;;5141646;27;20115;-76
2023/01/30 09:21:38;;;;;;;;;;;6.10;99.90;;;;;;5154440;27;20049;-84
2023/01/30 09:24:05;;;;;;;17.92;2.70;;;6.20;99.90;;;;;;5112651;27;20702;-83
2023/01/30 09:26:31;;;;;;;11.70;2.92;;;6.20;99.90;;;;;;5137414;27;20046;-83
2023/01/30 09:28:57;;;;;;;20.65;2.53;;;6.30;99.90;;;;;;5126098;27;20095;-82
2023/01/30 09:31:23;;;;;;;13.20;2.33;;;6.40;99.90;;;;;;5116682;27;20050;-83
2023/01/30 09:33:48;;;;;;;18.33;3.70;;;6.40;99.90;;;;;;5127020;27;20182;-80
2023/01/30 09:36:14;;;;;;;15.88;2.58;;;6.50;99.90;;;;;;5110561;27;20051;-81
2023/01/30 09:38:40;;;;;;;10.27;3.00;;;6.50;99.90;;;;;;5146209;27;20053;-81
2023/01/30 09:41:47;;;;;;;19.40;2.75;;;6.60;99.90;;;;;;5120861;27;20126;-77
2023/01/30 09:44:15;;;;;;;16.23;3.30;;;6.60;99.90;;;;;;5133977;27;20072;-81
2023/01/30 09:46:53;;;;;;;11.40;2.88;;;6.70;99.90;;;;;;5134462;27;20039;-84
2023/01/30 09:49:55;;;;;;;11.35;2.95;;;6.60;99.90;;;;;;5134818;27;20073;-81
2023/01/30 09:52:47;;;;;;;23.33;3.63;;;6.60;99.90;;;;;;5115455;27;20051;-79
2023/01/30 09:55:17;;;;;;;14.52;2.85;;;6.70;99.90;;;;;;5089578;27;20057;-75
2023/01/30 09:57:45;;;;;;;16.65;3.80;;;6.80;99.90;;;;;;5149816;27;20048;-78
2023/01/30 10:00:23;;;;;;;16.30;2.80;;;6.90;99.90;;;;;;5173293;27;20050;-78
2023/01/30 10:03:05;;;;;;;20.23;3.65;;;7.00;99.90;;;;;;5153978;27;20038;-81
2023/01/30 10:05:45;;;;;;;13.88;2.50;;;7.10;99.90;;;;;;5153082;27;20388;-77
2023/01/30 10:08:25;;;;;;;16.63;3.05;;;7.10;99.90;;;;;;5150708;27;20118;-76
2023/01/30 10:11:08;;;;;;;19.27;4.28;;;7.00;99.90;;;;;;5133643;27;20054;-79
2023/01/30 10:13:55;;;;;;;20.70;4.53;;;7.00;99.90;;;;;;5153137;27;20051;-76
2023/01/30 10:16:27;;;;;;;16.10;2.88;;;6.90;99.90;;;;;;5145015;27;20448;-75
2023/01/30 10:19:27;;;;;;;13.52;3.42;;;6.90;99.90;;;;;;5144996;27;20568;-80
2023/01/30 10:22:34;;;;;;;24.65;3.40;;;6.90;99.90;;;;;;5172514;27;20070;-81
2023/01/30 10:25:39;;;;;;;21.05;3.47;;;6.90;99.90;;;;;;5134908;27;20079;-79
2023/01/30 10:28:08;;;;;;;14.38;3.30;;;7.00;99.90;;;;;;5133256;27;20392;-80
2023/01/30 10:30:34;;;;;;;18.50;3.33;;;7.10;99.90;;;;;;5152923;27;20099;-80
2023/01/30 10:33:19;;;;;;;;;;;7.20;99.90;;;;;;5152419;27;20400;-79
2023/01/30 10:35:57;;;;;;;13.63;2.50;;;7.20;99.90;;;;;;5152390;27;19927;-79
2023/01/30 10:38:31;;;;;;;10.95;2.72;;;7.20;99.90;;;;;;5150151;27;20081;-79
2023/01/30 10:41:00;;;;;;;18.85;3.78;;;7.30;99.90;;;;;;5150338;27;20046;-78
2023/01/30 10:43:38;;;;;;;17.23;2.30;;;7.30;99.90;;;;;;5152603;27;20081;-79
2023/01/30 10:46:23;;;;;;;17.90;4.20;;;7.40;99.90;;;;;;5151258;27;20058;-78
2023/01/30 10:49:03;;;;;;;15.32;2.40;;;7.40;99.90;;;;;;5136178;27;20377;-80
2023/01/30 10:51:44;;;;;;;11.30;2.88;;;7.50;99.90;;;;;;5152604;27;20035;-79
2023/01/30 10:54:27;;;;;;;16.52;2.58;;;7.40;99.90;;;;;;5149815;27;20050;-80
2023/01/30 10:57:11;;;;;;;19.83;2.88;;;7.40;99.90;;;;;;5152023;27;20054;-79
2023/01/30 10:59:54;;;;;;;17.65;2.60;;;7.40;99.90;;;;;;5151864;27;20043;-80
2023/01/30 11:02:58;;;;;;;8.85;2.20;;;7.40;99.90;;;;;;5151706;27;20046;-80
2023/01/30 11:05:27;;;;;;;30.83;4.22;;;7.50;99.90;;;;;;5146069;27;20067;-75
2023/01/30 11:07:53;;;;;;;15.85;3.15;;;7.50;99.90;;;;;;5132076;27;20467;-79
2023/01/30 11:10:22;;;;;;;13.93;2.22;;;7.50;99.90;;;;;;5119202;27;20576;-80
2023/01/30 11:12:55;;;;;;;12.35;2.47;;;7.50;99.90;;;;;;5133517;27;20130;-79
2023/01/30 11:15:24;;;;;;;15.82;2.42;;;7.60;99.90;;;;;;5151863;27;20058;-80
2023/01/30 11:18:02;;;;;;;17.88;3.65;;;7.80;99.90;;;;;;5133384;27;20076;-80
2023/01/30 11:20:28;;;;;;;16.25;2.47;;;7.80;99.90;;;;;;5151824;27;20129;-80
2023/01/30 11:23:05;;;;;;;18.88;3.30;;;7.60;99.90;;;;;;5150589;27;20559;-80
2023/01/30 11:25:45;;;;;;;14.57;2.70;;;7.40;99.90;;;;;;5147153;27;20486;-79
2023/01/30 11:28:16;;;;;;;17.73;2.30;;;7.30;99.90;;;;;;5130188;27;20091;-80
2023/01/30 11:30:42;;;;;;;16.88;2.80;;;7.10;99.90;;;;;;5147530;27;20054;-79
2023/01/30 11:33:12;;;;;;;;;;;6.90;99.90;;;;;;5151805;27;20050;-80
2023/01/30 11:35:53;;;;;;;13.65;2.60;;;6.70;99.90;;;;;;5133559;27;20057;-80
2023/01/30 11:38:25;;;;;;;17.40;2.40;;;6.70;99.90;;;;;;5149920;27;20097;-81
2023/01/30 11:41:02;;;;;;;20.17;2.60;;;7.60;99.90;;;;;;5132692;27;20113;-80
2023/01/30 11:43:28;;;;;;;21.08;3.20;;;8.40;99.90;;;;;;5121852;27;20050;-80
2023/01/30 11:45:54;;;;;;;;;;;8.30;99.90;;;;;;5148774;27;20051;-80
2023/01/30 11:48:26;;;;;;;17.33;2.70;;;8.10;99.90;;;;;;5149405;27;19922;-80
2023/01/30 11:51:00;;;;;;;16.00;2.80;;;8.30;99.90;;;;;;5154982;27;20098;-80
2023/01/30 11:53:32;;;;;;;9.93;1.75;;;8.50;99.90;;;;;;5140227;27;20035;-80
2023/01/30 11:56:03;;;;;;;12.05;2.20;;;8.70;99.90;;;;;;5133150;27;20091;-80
2023/01/30 11:58:34;;;;;;;15.65;3.50;;;8.80;99.90;;;;;;5151511;27;20053;-80
2023/01/30 12:01:01;;;;;;;17.67;2.47;;;8.60;99.90;;;;;;5156538;27;20149;-80
2023/01/30 12:03:28;;;;;;;17.90;3.05;;;8.40;99.90;;;;;;5153339;27;20546;-80
2023/01/30 12:05:57;;;;;;;12.00;3.42;;;8.10;99.90;;;;;;5165298;27;20074;-79
2023/01/30 12:08:32;;;;;;;16.13;2.65;;;7.70;99.90;;;;;;5152441;27;20039;-80
2023/01/30 12:11:00;;;;;;;11.43;2.17;;;7.40;99.90;;;;;;5146723;27;20510;-80
2023/01/30 12:13:32;;;;;;;13.05;2.47;;;7.20;99.90;;;;;;5154886;27;20043;-79
2023/01/30 12:16:06;;;;;;;14.75;2.35;;;6.90;99.90;;;;;;5155419;27;20056;-80
2023/01/30 12:18:37;;;;;;;12.70;2.25;;;6.90;99.90;;;;;;5153236;27;20130;-82
2023/01/30 12:21:10;;;;;;;15.10;2.22;;;6.90;99.90;;;;;;5154315;27;20037;-84
2023/01/30 12:23:57;;;;;;;10.60;2.03;;;7.10;99.90;;;;;;5153173;27;20083;-86
2023/01/30 12:26:59;;;;;;;9.30;2.17;;;7.90;99.90;;;;;;5162871;27;20046;-80
2023/01/30 12:29:58;;;;;;;8.65;1.88;;;8.90;99.90;;;;;;5164480;27;20042;-81
2023/01/30 12:32:29;;;;;;;8.70;1.40;;;10.10;99.90;;;;;;5059072;27;20134;-77
2023/01/30 12:34:55;;;;;;;6.25;1.50;;;9.70;99.90;;;;;;5154493;27;20556;-77
2023/01/30 12:37:44;;;;;;;8.77;1.38;;;9.30;99.90;;;;;;5153295;27;20047;-77
2023/01/30 12:40:31;;;;;;;4.95;1.33;;;9.10;99.90;;;;;;5136017;27;20047;-77
2023/01/30 12:43:22;;;;;;;9.98;1.67;;;9.00;99.90;;;;;;5136371;27;20054;-77
2023/01/30 12:46:15;;;;;;;7.18;1.73;;;9.00;99.90;;;;;;5154801;27;20050;-77
2023/01/30 12:49:20;;;;;;;6.20;1.15;;;8.60;99.90;;;;;;5154508;27;20110;-77
2023/01/30 12:52:01;;;;;;;8.90;1.50;;;8.30;99.90;;;;;;5152474;27;20508;-77
2023/01/30 12:54:32;;;;;;;9.10;1.88;;;8.00;99.90;;;;;;5150639;27;20043;-76
2023/01/30 12:57:13;;;;;;;6.90;1.60;;;7.90;99.90;;;;;;5155042;27;20054;-76
2023/01/30 12:59:57;;;;;;;9.63;1.67;;;7.80;99.90;;;;;;5134185;27;20059;-76
2023/01/30 13:02:41;;;;;;;8.00;2.60;;;7.80;99.90;;;;;;5133202;27;20179;-75
2023/01/30 13:05:38;;;;;;;6.28;1.60;;;7.70;99.90;;;;;;5133236;27;20058;-72
2023/01/30 13:08:39;;;;;;;16.02;2.65;;;7.70;99.90;;;;;;5140797;27;20043;-77
2023/01/30 13:11:16;;;;;;;9.88;1.95;;;7.80;99.90;;;;;;5153580;27;20054;-77
2023/01/30 13:13:48;;;;;;;9.45;2.03;;;8.20;99.90;;;;;;5153692;27;20107;-77